createdAt,value
2022-08-05T00:00:24.109Z,18.16
2022-08-05T00:02:54.449Z,18.09
2022-08-05T00:06:03.050Z,18.08
2022-08-05T00:08:32.948Z,18.04
2022-08-05T00:11:01.604Z,18.15
2022-08-05T00:13:39.139Z,17.89
2022-08-05T00:16:10.954Z,17.74
2022-08-05T00:18:42.369Z,17.77
2022-08-05T00:21:14.506Z,17.75
2022-08-05T00:24:09.793Z,17.69
2022-08-05T00:26:34.245Z,17.69
2022-08-05T00:29:02.734Z,17.61
2022-08-05T00:31:54.009Z,17.69
2022-08-05T00:34:56.415Z,17.68
2022-08-05T00:37:10.347Z,17.67
2022-08-05T00:39:58.751Z,17.42
2022-08-05T00:42:34.425Z,17.48
2022-08-05T00:45:03.057Z,17.40
2022-08-05T00:47:53.219Z,17.50
2022-08-05T00:50:20.828Z,17.39
2022-08-05T00:52:49.381Z,17.34
2022-08-05T00:55:18.948Z,17.35
2022-08-05T00:57:58.147Z,17.33
2022-08-05T01:00:27.647Z,17.41
2022-08-05T01:02:56.060Z,17.33
2022-08-05T01:05:24.988Z,17.30
2022-08-05T01:08:42.369Z,17.15
2022-08-05T01:10:51.645Z,17.31
2022-08-05T01:13:27.569Z,17.25
2022-08-05T01:16:26.093Z,17.25
2022-08-05T01:19:14.169Z,17.15
2022-08-05T01:22:15.364Z,17.14
2022-08-05T01:25:08.599Z,17.09
2022-08-05T01:28:21.144Z,17.03
2022-08-05T01:30:55.912Z,17.12
2022-08-05T01:33:35.430Z,17.18
2022-08-05T01:36:13.118Z,17.18
2022-08-05T01:38:48.611Z,17.16
2022-08-05T01:41:22.403Z,17.23
2022-08-05T01:43:56.017Z,17.21
2022-08-05T01:46:41.984Z,17.31
2022-08-05T01:49:23.724Z,17.20
2022-08-05T01:51:58.245Z,17.26
2022-08-05T01:54:30.856Z,17.25
2022-08-05T01:58:10.381Z,17.20
2022-08-05T01:59:50.762Z,17.26
2022-08-05T02:02:28.439Z,17.19
2022-08-05T02:05:03.150Z,17.24
2022-08-05T02:07:32.273Z,17.13
2022-08-05T02:10:03.535Z,17.13
2022-08-05T02:12:38.489Z,17.15
2022-08-05T02:15:12.205Z,17.15
2022-08-05T02:18:32.053Z,17.11
2022-08-05T02:20:55.194Z,17.13
2022-08-05T02:23:33.506Z,17.17
2022-08-05T02:26:04.233Z,17.14
2022-08-05T02:28:41.445Z,17.04
2022-08-05T02:31:14.564Z,17.03
2022-08-05T02:33:50.195Z,17.05
2022-08-05T02:36:27.929Z,17.09
2022-08-05T02:39:01.677Z,17.14
2022-08-05T02:41:37.565Z,17.27
2022-08-05T02:44:25.449Z,17.27
2022-08-05T02:47:00.497Z,17.27
2022-08-05T02:49:36.375Z,17.14
2022-08-05T02:52:11.493Z,17.15
2022-08-05T02:54:52.171Z,16.88
2022-08-05T02:58:11.989Z,17.19
2022-08-05T03:00:14.365Z,17.20
2022-08-05T03:02:45.332Z,17.24
2022-08-05T03:05:16.448Z,17.22
2022-08-05T03:08:00.486Z,17.21
2022-08-05T03:10:33.842Z,17.15
2022-08-05T03:15:28.890Z,17.08
2022-08-05T03:17:57.650Z,17.11
2022-08-05T03:20:27.689Z,17.09
2022-08-05T03:22:57.562Z,17.14
2022-08-05T03:25:33.145Z,17.12
2022-08-05T03:28:18.680Z,17.09
2022-08-05T03:30:49.697Z,17.07
2022-08-05T03:33:20.075Z,17.06
2022-08-05T03:35:52.702Z,17.05
2022-08-05T03:38:23.997Z,16.96
2022-08-05T03:41:04.070Z,17.01
2022-08-05T03:44:08.814Z,16.93
2022-08-05T03:46:30.056Z,16.94
2022-08-05T03:49:01.897Z,16.94
2022-08-05T03:52:38.698Z,16.92
2022-08-05T03:55:07.197Z,16.88
2022-08-05T03:57:42.470Z,16.91
2022-08-05T04:00:16.296Z,16.94
2022-08-05T04:02:58.718Z,16.95
2022-08-05T04:05:33.651Z,16.96
2022-08-05T04:08:14.780Z,16.96
2022-08-05T04:10:56.113Z,16.97
2022-08-05T04:13:26.083Z,16.96
2022-08-05T04:16:15.179Z,17.01
2022-08-05T04:18:54.210Z,17.04
2022-08-05T04:22:09.159Z,17.08
2022-08-05T04:24:19.088Z,17.06
2022-08-05T04:26:50.517Z,17.07
2022-08-05T04:29:18.645Z,17.05
2022-08-05T04:31:48.356Z,17.08
2022-08-05T04:34:32.743Z,17.00
2022-08-05T04:37:03.218Z,17.03
2022-08-05T04:39:35.457Z,16.92
2022-08-05T04:42:04.075Z,16.59
2022-08-05T04:44:32.323Z,17.08
2022-08-05T04:47:09.517Z,17.10
2022-08-05T04:50:02.749Z,17.18
2022-08-05T04:52:28.161Z,17.29
2022-08-05T04:54:57.997Z,17.30
2022-08-05T04:57:37.274Z,17.25
2022-08-05T05:00:06.969Z,17.27
2022-08-05T05:02:43.078Z,17.23
2022-08-05T05:05:16.588Z,17.40
2022-08-05T05:08:01.217Z,17.48
2022-08-05T05:10:33.231Z,17.38
2022-08-05T05:13:04.230Z,17.39
2022-08-05T05:15:54.362Z,17.33
2022-08-05T05:18:31.325Z,17.25
2022-08-05T05:21:04.033Z,17.27
2022-08-05T05:23:39.097Z,17.35
2022-08-05T05:26:28.541Z,17.34
2022-08-05T05:29:02.331Z,17.41
2022-08-05T05:34:02.374Z,17.42
2022-08-05T05:36:31.325Z,17.49
2022-08-05T05:38:59.784Z,17.65
2022-08-05T05:41:40.761Z,17.71
2022-08-05T05:44:34.426Z,17.69
2022-08-05T05:46:58.565Z,17.67
2022-08-05T05:49:33.187Z,17.53
2022-08-05T05:52:01.566Z,17.50
2022-08-05T05:54:51.056Z,17.67
2022-08-05T05:57:21.302Z,17.64
2022-08-05T05:59:49.709Z,17.55
2022-08-05T06:02:32.609Z,17.65
2022-08-05T06:05:10.387Z,17.53
2022-08-05T06:08:01.205Z,17.53
2022-08-05T06:10:36.387Z,17.61
2022-08-05T06:13:07.100Z,17.61
2022-08-05T06:16:28.518Z,17.65
2022-08-05T06:18:31.484Z,17.58
2022-08-05T06:21:00.773Z,17.61
2022-08-05T06:23:32.042Z,17.58
2022-08-05T06:26:13.719Z,17.61
2022-08-05T06:28:51.366Z,17.63
2022-08-05T06:31:22.004Z,17.59
2022-08-05T06:34:06.191Z,17.61
2022-08-05T06:36:37.471Z,17.60
2022-08-05T06:39:27.057Z,17.64
2022-08-05T06:41:57.325Z,17.73
2022-08-05T06:44:29.074Z,17.67
2022-08-05T06:46:57.815Z,17.71
2022-08-05T06:50:00.068Z,17.84
2022-08-05T06:52:38.292Z,17.93
2022-08-05T06:55:08.785Z,17.99
2022-08-05T06:58:03.081Z,17.94
2022-08-05T07:00:27.131Z,17.91
2022-08-05T07:02:58.127Z,17.96
2022-08-05T07:05:37.131Z,18.05
2022-08-05T07:08:10.863Z,18.09
2022-08-05T07:10:53.305Z,18.09
2022-08-05T07:13:58.042Z,18.07
2022-08-05T07:17:58.980Z,18.02
2022-08-05T07:22:28.790Z,18.06
2022-08-05T07:25:23.944Z,18.20
2022-08-05T07:27:58.099Z,18.36
2022-08-05T07:30:33.376Z,18.42
2022-08-05T07:33:04.968Z,18.45
2022-08-05T07:36:01.814Z,18.43
2022-08-05T07:38:33.491Z,18.51
2022-08-05T07:42:07.317Z,18.48
2022-08-05T07:43:57.053Z,18.44
2022-08-05T07:46:26.666Z,18.53
2022-08-05T07:49:04.225Z,18.48
2022-08-05T07:51:48.663Z,18.35
2022-08-05T07:54:31.579Z,18.50
2022-08-05T07:57:18.131Z,18.25
2022-08-05T07:59:53.520Z,18.33
2022-08-05T08:02:31.373Z,18.20
2022-08-05T08:05:16.630Z,18.41
2022-08-05T08:07:59.024Z,18.54
2022-08-05T08:10:28.854Z,18.15
2022-08-05T08:12:58.724Z,18.83
2022-08-05T08:15:37.460Z,18.97
2022-08-05T08:18:15.540Z,19.18
2022-08-05T08:21:01.924Z,18.99
2022-08-05T08:24:02.806Z,18.88
2022-08-05T08:26:29.481Z,19.16
2022-08-05T08:29:21.726Z,19.44
2022-08-05T08:31:47.515Z,19.42
2022-08-05T08:34:18.558Z,19.35
2022-08-05T08:36:52.467Z,19.05
2022-08-05T08:39:24.989Z,19.15
2022-08-05T08:41:59.785Z,18.77
2022-08-05T08:45:24.182Z,19.11
2022-08-05T08:48:06.090Z,18.78
2022-08-05T08:50:31.851Z,18.63
2022-08-05T08:53:12.176Z,18.51
2022-08-05T08:56:04.605Z,18.74
2022-08-05T08:58:37.207Z,19.13
2022-08-05T09:01:16.670Z,19.09
2022-08-05T09:03:47.654Z,19.17
2022-08-05T09:06:21.233Z,19.44
2022-08-05T09:08:56.689Z,19.63
2022-08-05T09:11:51.783Z,19.67
2022-08-05T09:14:56.816Z,19.29
2022-08-05T09:17:03.754Z,19.46
2022-08-05T09:19:36.423Z,19.65
2022-08-05T09:22:31.949Z,19.59
2022-08-05T09:25:14.055Z,19.65
2022-08-05T09:28:04.271Z,19.52
2022-08-05T09:30:35.596Z,19.53
2022-08-05T09:33:07.960Z,19.54
2022-08-05T09:35:36.732Z,19.38
2022-08-05T09:38:16.801Z,19.24
2022-08-05T09:40:53.756Z,19.19
2022-08-05T09:43:40.738Z,19.43
2022-08-05T09:46:28.086Z,19.28
2022-08-05T09:49:06.811Z,18.84
2022-08-05T09:51:40.017Z,19.00
2022-08-05T09:54:10.062Z,19.10
2022-08-05T09:56:40.861Z,19.13
2022-08-05T09:59:27.546Z,18.90
2022-08-05T10:01:58.156Z,18.95
2022-08-05T10:04:38.562Z,19.19
2022-08-05T10:07:20.541Z,19.01
2022-08-05T10:10:13.805Z,18.80
2022-08-05T10:12:50.447Z,18.81
2022-08-05T10:15:29.874Z,18.90
2022-08-05T10:18:14.100Z,18.94
2022-08-05T10:20:47.608Z,18.99
2022-08-05T10:23:34.253Z,19.00
2022-08-05T10:26:14.157Z,18.93
2022-08-05T10:28:46.310Z,18.79
2022-08-05T10:32:48.340Z,18.82
2022-08-05T10:34:07.877Z,19.08
2022-08-05T10:36:38.286Z,19.12
2022-08-05T10:39:24.491Z,19.24
2022-08-05T10:42:01.402Z,19.35
2022-08-05T10:44:33.522Z,19.58
2022-08-05T10:47:25.787Z,19.77
2022-08-05T10:50:20.727Z,19.75
2022-08-05T10:52:58.888Z,19.62
2022-08-05T10:55:28.398Z,19.46
2022-08-05T10:58:09.743Z,19.31
2022-08-05T11:00:47.986Z,19.57
2022-08-05T11:03:24.750Z,19.60
2022-08-05T11:06:15.381Z,19.26
2022-08-05T11:09:16.312Z,19.34
2022-08-05T11:11:53.210Z,19.69
2022-08-05T11:15:19.186Z,19.32
2022-08-05T11:17:57.544Z,19.04
2022-08-05T11:20:44.671Z,19.19
2022-08-05T11:24:05.500Z,19.43
2022-08-05T11:26:28.709Z,19.53
2022-08-05T11:29:06.802Z,19.19
2022-08-05T11:31:57.453Z,19.37
2022-08-05T11:34:47.447Z,19.46
2022-08-05T11:38:28.240Z,19.59
2022-08-05T11:41:35.556Z,19.82
2022-08-05T11:44:05.714Z,19.56
2022-08-05T11:46:38.016Z,19.80
2022-08-05T11:49:26.685Z,19.96
2022-08-05T11:51:57.609Z,20.10
2022-08-05T11:54:33.554Z,19.89
2022-08-05T11:57:07.971Z,19.91
2022-08-05T11:59:52.782Z,19.74
2022-08-05T12:02:31.588Z,19.89
2022-08-05T12:05:07.130Z,20.18
2022-08-05T12:08:04.370Z,20.01
2022-08-05T12:10:42.829Z,20.14
2022-08-05T12:13:16.515Z,20.12
2022-08-05T12:15:49.865Z,20.09
2022-08-05T12:18:20.611Z,19.84
2022-08-05T12:20:52.681Z,20.02
2022-08-05T12:23:23.213Z,20.25
2022-08-05T12:25:53.591Z,20.40
2022-08-05T12:28:36.693Z,20.22
2022-08-05T12:31:05.753Z,20.26
2022-08-05T12:33:36.359Z,20.42
2022-08-05T12:36:09.122Z,20.39
2022-08-05T12:38:41.337Z,20.35
2022-08-05T12:41:13.267Z,20.06
2022-08-05T12:43:57.647Z,20.12
2022-08-05T12:46:29.296Z,20.13
2022-08-05T12:48:59.377Z,20.13
2022-08-05T12:52:12.569Z,20.11
2022-08-05T12:54:26.508Z,20.38
2022-08-05T12:56:56.761Z,20.31
2022-08-05T12:59:46.998Z,20.27
2022-08-05T13:02:20.096Z,20.20
2022-08-05T13:04:56.491Z,20.20
2022-08-05T13:07:56.176Z,20.27
2022-08-05T13:10:19.650Z,20.22
2022-08-05T13:12:51.295Z,20.17
2022-08-05T13:15:41.044Z,20.16
2022-08-05T13:18:20.061Z,20.19
2022-08-05T13:20:50.049Z,20.44
2022-08-05T13:23:22.482Z,20.40
2022-08-05T13:25:59.558Z,20.54
2022-08-05T13:28:32.149Z,20.67
2022-08-05T13:31:10.893Z,20.36
2022-08-05T13:34:21.910Z,20.62
2022-08-05T13:36:31.232Z,20.40
2022-08-05T13:38:59.583Z,20.46
2022-08-05T13:41:35.828Z,20.66
2022-08-05T13:44:06.663Z,20.59
2022-08-05T13:47:01.826Z,20.59
2022-08-05T13:49:26.857Z,20.40
2022-08-05T13:51:55.728Z,20.16
2022-08-05T13:54:26.495Z,20.26
2022-08-05T13:56:56.312Z,20.42
2022-08-05T13:59:27.442Z,20.14
2022-08-05T14:02:00.604Z,20.16
2022-08-05T14:04:49.932Z,20.29
2022-08-05T14:07:25.668Z,20.21
2022-08-05T14:10:09.862Z,20.25
2022-08-05T14:12:42.942Z,20.13
2022-08-05T14:16:06.161Z,20.38
2022-08-05T14:18:15.054Z,20.43
2022-08-05T14:20:47.920Z,20.02
2022-08-05T14:23:23.487Z,20.25
2022-08-05T14:25:58.122Z,20.21
2022-08-05T14:28:30.087Z,20.11
2022-08-05T14:30:58.634Z,20.10
2022-08-05T14:33:26.737Z,20.16
2022-08-05T14:35:55.134Z,20.17
2022-08-05T14:38:32.761Z,20.19
2022-08-05T14:41:07.637Z,20.34
2022-08-05T14:43:57.541Z,20.29
2022-08-05T14:46:29.804Z,20.18
2022-08-05T14:49:06.844Z,20.06
2022-08-05T14:51:37.706Z,20.26
2022-08-05T14:54:26.954Z,20.29
2022-08-05T14:56:55.256Z,20.35
2022-08-05T14:59:24.912Z,20.22
2022-08-05T15:01:58.350Z,20.30
2022-08-05T15:04:29.178Z,19.95
2022-08-05T15:06:57.540Z,19.73
2022-08-05T15:09:54.246Z,19.81
2022-08-05T15:12:16.924Z,19.92
2022-08-05T15:14:50.530Z,19.93
2022-08-05T15:17:44.998Z,20.13
2022-08-05T15:20:18.872Z,19.78
2022-08-05T15:22:54.222Z,19.35
2022-08-05T15:25:51.615Z,19.49
2022-08-05T15:28:14.430Z,19.61
2022-08-05T15:30:45.513Z,19.53
2022-08-05T15:34:18.710Z,19.63
2022-08-05T15:36:04.723Z,19.73
2022-08-05T15:38:40.948Z,19.85
2022-08-05T15:41:20.663Z,19.89
2022-08-05T15:43:51.622Z,19.68
2022-08-05T15:46:24.132Z,19.51
2022-08-05T15:49:00.697Z,19.49
2022-08-05T15:52:13.305Z,19.44
2022-08-05T15:54:34.546Z,19.56
2022-08-05T15:57:03.930Z,19.55
2022-08-05T15:59:36.023Z,19.54
2022-08-05T16:02:09.639Z,19.44
2022-08-05T16:04:43.515Z,19.58
2022-08-05T16:07:13.298Z,19.62
2022-08-05T16:09:42.185Z,19.57
2022-08-05T16:12:12.080Z,19.68
2022-08-05T16:14:40.812Z,19.73
2022-08-05T16:17:10.801Z,19.92
2022-08-05T16:20:11.772Z,20.00
2022-08-05T16:22:34.066Z,19.80
2022-08-05T16:25:05.382Z,19.82
2022-08-05T16:27:59.895Z,19.64
2022-08-05T16:30:28.892Z,19.81
2022-08-05T16:32:59.455Z,19.74
2022-08-05T16:35:32.210Z,19.76
2022-08-05T16:38:16.984Z,19.49
2022-08-05T16:40:55.549Z,19.59
2022-08-05T16:43:30.471Z,19.68
2022-08-05T16:46:07.623Z,19.51
2022-08-05T16:48:48.580Z,19.43
2022-08-05T16:51:17.611Z,19.42
2022-08-05T16:54:04.086Z,19.23
2022-08-05T16:56:34.982Z,19.29
2022-08-05T16:59:08.515Z,19.02
2022-08-05T17:01:54.152Z,19.07
2022-08-05T17:04:27.734Z,19.14
2022-08-05T17:07:00.446Z,19.17
2022-08-05T17:09:29.537Z,19.25
2022-08-05T17:11:59.654Z,19.19
2022-08-05T17:14:37.121Z,19.08
2022-08-05T17:17:06.783Z,19.23
2022-08-05T17:19:46.289Z,19.05
2022-08-05T17:22:25.125Z,18.94
2022-08-05T17:24:57.866Z,18.91
2022-08-05T17:27:33.575Z,18.89
2022-08-05T17:30:03.392Z,18.87
2022-08-05T17:32:33.744Z,19.07
2022-08-05T17:35:05.342Z,18.98
2022-08-05T17:37:40.305Z,19.07
2022-08-05T17:40:15.935Z,19.13
2022-08-05T17:42:50.891Z,19.22
2022-08-05T17:45:21.868Z,19.16
2022-08-05T17:47:55.009Z,18.90
2022-08-05T17:50:28.315Z,18.60
2022-08-05T17:53:00.129Z,18.85
2022-08-05T17:55:37.295Z,18.81
2022-08-05T17:58:09.704Z,18.89
2022-08-05T18:00:44.301Z,18.66
2022-08-05T18:03:24.125Z,18.71
2022-08-05T18:06:11.474Z,18.64
2022-08-05T18:08:45.934Z,18.76
2022-08-05T18:11:24.840Z,18.87
2022-08-05T18:14:04.284Z,18.94
2022-08-05T18:16:33.649Z,18.64
2022-08-05T18:19:02.357Z,18.77
2022-08-05T18:22:07.778Z,18.75
2022-08-05T18:24:20.962Z,18.81
2022-08-05T18:26:49.328Z,18.13
2022-08-05T18:29:17.595Z,18.68
2022-08-05T18:32:06.810Z,18.54
2022-08-05T18:34:42.726Z,18.26
2022-08-05T18:37:33.684Z,18.23
2022-08-05T18:41:50.221Z,18.47
2022-08-05T18:42:49.372Z,18.41
2022-08-05T18:45:20.173Z,18.31
2022-08-05T18:47:56.471Z,18.33
2022-08-05T18:50:46.505Z,18.42
2022-08-05T18:53:20.579Z,18.18
2022-08-05T18:55:51.272Z,18.21
2022-08-05T18:58:27.313Z,18.09
2022-08-05T19:00:58.546Z,18.11
2022-08-05T19:03:52.750Z,18.18
2022-08-05T19:06:21.739Z,18.07
2022-08-05T19:08:51.989Z,18.05
2022-08-05T19:11:27.897Z,18.01
2022-08-05T19:14:01.117Z,18.19
2022-08-05T19:16:47.109Z,18.16
2022-08-05T19:19:15.754Z,18.23
2022-08-05T19:21:49.968Z,18.17
2022-08-05T19:24:34.670Z,18.10
2022-08-05T19:27:04.036Z,17.81
2022-08-05T19:29:35.959Z,17.95
2022-08-05T19:32:11.114Z,17.88
2022-08-05T19:34:40.386Z,17.93
2022-08-05T19:37:10.264Z,17.87
2022-08-05T19:39:45.812Z,17.80
2022-08-05T19:42:36.008Z,17.82
2022-08-05T19:45:06.610Z,17.79
2022-08-05T19:47:37.654Z,17.75
2022-08-05T19:50:12.037Z,17.66
2022-08-05T19:52:41.151Z,17.60
2022-08-05T19:56:14.732Z,17.63
2022-08-05T19:58:07.069Z,17.65
2022-08-05T20:00:48.674Z,17.48
2022-08-05T20:03:17.283Z,17.56
2022-08-05T20:05:51.341Z,17.52
2022-08-05T20:08:24.573Z,17.57
2022-08-05T20:10:55.274Z,17.63
2022-08-05T20:13:30.218Z,17.58
2022-08-05T20:16:12.432Z,17.59
2022-08-05T20:18:41.117Z,17.61
2022-08-05T20:21:11.205Z,17.54
2022-08-05T20:23:51.335Z,17.52
2022-08-05T20:26:25.513Z,17.46
2022-08-05T20:28:56.299Z,17.49
2022-08-05T20:31:36.845Z,17.34
2022-08-05T20:34:05.585Z,17.32
2022-08-05T20:36:36.792Z,17.46
2022-08-05T20:39:12.890Z,17.35
2022-08-05T20:41:45.279Z,17.53
2022-08-05T20:44:17.577Z,17.47
2022-08-05T20:46:56.961Z,17.45
2022-08-05T20:49:25.908Z,17.27
2022-08-05T20:51:54.568Z,17.34
2022-08-05T20:54:22.882Z,17.27
2022-08-05T20:56:54.678Z,17.26
2022-08-05T20:59:26.589Z,17.29
2022-08-05T21:01:58.094Z,17.23
2022-08-05T21:04:27.002Z,17.22
2022-08-05T21:06:55.917Z,17.26
2022-08-05T21:09:24.520Z,17.11
2022-08-05T21:12:08.101Z,17.23
2022-08-05T21:14:42.620Z,17.27
2022-08-05T21:17:11.743Z,17.27
2022-08-05T21:19:46.864Z,17.26
2022-08-05T21:22:18.345Z,17.26
2022-08-05T21:24:48.878Z,17.31
2022-08-05T21:27:25.209Z,17.38
2022-08-05T21:29:55.901Z,17.36
2022-08-05T21:32:27.042Z,17.25
2022-08-05T21:35:17.466Z,17.27
2022-08-05T21:37:47.261Z,17.22
2022-08-05T21:40:21.725Z,17.02
2022-08-05T21:42:53.482Z,17.21
2022-08-05T21:45:24.802Z,17.25
2022-08-05T21:47:57.856Z,17.23
2022-08-05T21:50:26.536Z,17.18
2022-08-05T21:52:58.643Z,17.14
2022-08-05T21:56:04.468Z,17.17
2022-08-05T21:58:24.968Z,17.24
2022-08-05T22:00:59.166Z,17.17
2022-08-05T22:03:52.185Z,17.21
2022-08-05T22:06:15.861Z,17.16
2022-08-05T22:08:51.848Z,17.19
2022-08-05T22:11:34.782Z,17.18
2022-08-05T22:14:32.980Z,17.11
2022-08-05T22:16:57.057Z,17.06
2022-08-05T22:20:00.502Z,17.26
2022-08-05T22:22:17.015Z,17.13
2022-08-05T22:25:21.102Z,17.19
2022-08-05T22:28:05.035Z,17.14
2022-08-05T22:30:44.217Z,17.12
2022-08-05T22:33:58.571Z,17.16
2022-08-05T22:36:14.301Z,17.22
2022-08-05T22:38:43.567Z,17.14
2022-08-05T22:42:04.334Z,17.13
2022-08-05T22:44:05.682Z,17.11
2022-08-05T22:46:39.946Z,17.04
2022-08-05T22:49:23.382Z,16.99
2022-08-05T22:52:06.401Z,17.15
2022-08-05T22:54:40.866Z,17.08
2022-08-05T22:57:17.301Z,16.99
2022-08-05T22:59:53.929Z,16.78
2022-08-05T23:02:28.774Z,17.00
2022-08-05T23:05:01.757Z,16.96
2022-08-05T23:07:48.580Z,16.96
2022-08-05T23:10:19.904Z,16.92
2022-08-05T23:12:51.168Z,17.08
2022-08-05T23:15:20.251Z,17.11
2022-08-05T23:18:00.800Z,17.07
2022-08-05T23:20:32.207Z,16.98
2022-08-05T23:23:05.783Z,16.88
2022-08-05T23:25:52.435Z,16.92
2022-08-05T23:28:23.954Z,16.86
2022-08-05T23:30:55.075Z,16.86
2022-08-05T23:34:02.721Z,16.77
2022-08-05T23:36:14.051Z,16.76
2022-08-05T23:38:43.689Z,16.81
2022-08-05T23:41:12.427Z,16.82
2022-08-05T23:44:06.458Z,16.86
2022-08-05T23:46:30.099Z,16.84
2022-08-05T23:49:03.766Z,16.63
2022-08-05T23:52:01.416Z,16.73
2022-08-05T23:54:36.369Z,16.64
2022-08-05T23:57:07.895Z,16.75
